Time;durP1;ratioP1;P1;durP2;ratioP2;P2;SDS_P1;SDS_P2;PMS_P1;PMS_P2;Temp;Humidity;BMP_temperature;BMP_pressure;BME280_temperature;BME280_humidity;BME280_pressure;Samples;Min_cycle;Max_cycle;Signal;HPM_P1;HPM_P2
2022/04/16 00:02:04;;;;;;;28.13;16.80;;;;;;;7.33;77.95;101216.72;5051678;28;20379;-78
2022/04/16 00:04:30;;;;;;;25.05;14.88;;;;;;;7.32;78.85;101214.31;5035304;28;20021;-77
2022/04/16 00:06:57;;;;;;;23.67;15.38;;;;;;;7.36;78.63;101221.50;5051616;28;20037;-77
2022/04/16 00:09:23;;;;;;;25.05;15.13;;;;;;;7.37;78.61;101219.47;5036684;28;20029;-77
2022/04/16 00:11:49;;;;;;;33.92;16.35;;;;;;;7.34;78.75;101223.19;5022262;28;20523;-77
2022/04/16 00:14:16;;;;;;;23.38;14.70;;;;;;;7.38;78.59;101227.56;5038707;28;20030;-77
2022/04/16 00:16:44;;;;;;;25.60;15.00;;;;;;;7.40;78.79;101223.47;5038952;28;20028;-77
2022/04/16 00:19:11;;;;;;;26.30;15.77;;;;;;;7.31;78.68;101224.03;5038909;28;20032;-79
2022/04/16 00:21:37;;;;;;;24.65;15.15;;;;;;;7.30;79.15;101236.63;5038806;28;20033;-77
2022/04/16 00:24:05;;;;;;;27.83;15.52;;;;;;;7.24;79.01;101227.81;5038493;28;20028;-78
2022/04/16 00:26:31;;;;;;;26.05;14.20;;;;;;;7.20;78.87;101235.56;5054991;28;20017;-79
2022/04/16 00:29:00;;;;;;;28.40;15.68;;;;;;;7.13;78.57;101238.56;5055042;28;20017;-78
2022/04/16 00:31:28;;;;;;;19.80;14.20;;;;;;;7.12;78.95;101247.47;5056427;28;20124;-78
2022/04/16 00:33:55;;;;;;;24.38;14.68;;;;;;;7.13;79.11;101254.75;5038206;28;20099;-77
2022/04/16 00:36:22;;;;;;;23.33;12.88;;;;;;;7.02;79.52;101246.44;5038224;28;20111;-77
2022/04/16 00:38:48;;;;;;;23.02;13.93;;;;;;;6.97;79.34;101257.44;5052013;28;20095;-78
2022/04/16 00:41:14;;;;;;;19.42;13.50;;;;;;;6.98;79.23;101259.06;5055472;28;20119;-78
2022/04/16 00:43:40;;;;;;;21.10;13.90;;;;;;;6.97;79.42;101268.78;5056565;28;20033;-78
2022/04/16 00:46:06;;;;;;;24.95;14.25;;;;;;;6.96;78.97;101262.31;5054757;28;20025;-79
2022/04/16 00:48:31;;;;;;;18.35;12.82;;;;;;;6.71;77.91;101245.75;5055055;28;20028;-78
2022/04/16 00:50:59;;;;;;;18.27;12.20;;;;;;;6.73;78.27;101267.97;5054802;28;20021;-79
2022/04/16 00:53:27;;;;;;;19.15;12.55;;;;;;;6.67;78.39;101264.81;5054570;28;20025;-78
2022/04/16 00:55:54;;;;;;;20.83;12.40;;;;;;;6.75;78.39;101280.47;5056021;28;20017;-78
2022/04/16 00:58:19;;;;;;;21.67;11.35;;;;;;;6.76;77.37;101278.44;5021489;28;20029;-79
2022/04/16 01:00:45;;;;;;;15.02;10.60;;;;;;;6.70;77.17;101277.34;5054670;28;20028;-78
2022/04/16 01:03:12;;;;;;;16.70;10.85;;;;;;;6.63;77.40;101286.72;5037858;28;20036;-78
2022/04/16 01:05:39;;;;;;;14.50;9.90;;;;;;;6.58;76.71;101272.25;5037561;28;20037;-79
2022/04/16 01:08:04;;;;;;;12.00;9.82;;;;;;;6.61;77.05;101282.72;5054342;28;20032;-79
2022/04/16 01:10:31;;;;;;;12.63;8.95;;;;;;;6.50;76.39;101285.72;5054414;28;20036;-80
2022/04/16 01:13:03;;;;;;;12.50;8.88;;;;;;;6.50;77.17;101295.00;5021302;28;20033;-77
2022/04/16 01:15:30;;;;;;;;;;;;;;;6.45;77.30;101298.31;5021539;28;20021;-79
2022/04/16 01:17:57;;;;;;;12.18;8.63;;;;;;;6.41;77.76;101293.94;5054215;28;20029;-77
2022/04/16 01:20:24;;;;;;;11.77;8.57;;;;;;;6.49;76.92;101313.22;5053265;28;20378;-78
2022/04/16 01:22:51;;;;;;;11.15;8.43;;;;;;;6.32;76.46;101297.28;5037730;28;20382;-77
2022/04/16 01:25:18;;;;;;;13.88;9.30;;;;;;;6.44;76.29;101312.88;5055124;28;20025;-79
2022/04/16 01:27:46;;;;;;;12.40;9.55;;;;;;;6.41;75.58;101310.94;5037502;28;20025;-77
2022/04/16 01:30:17;;;;;;;12.68;8.35;;;;;;;6.17;75.43;101295.88;5053943;28;20044;-77
2022/04/16 01:32:42;;;;;;;14.27;8.80;;;;;;;6.30;75.31;101327.22;5053690;28;20064;-77
2022/04/16 01:35:10;;;;;;;11.73;8.27;;;;;;;6.20;75.91;101306.34;5054509;28;20034;-78
2022/04/16 01:37:37;;;;;;;13.82;7.18;;;;;;;6.17;75.38;101312.06;5053906;28;20447;-78
2022/04/16 01:40:09;;;;;;;11.02;7.47;;;;;;;6.17;75.54;101307.19;5053660;28;20017;-77
2022/04/16 01:42:41;;;;;;;;;;;;;;;6.24;74.64;101326.09;5054112;28;20035;-77
2022/04/16 01:45:09;;;;;;;10.27;6.80;;;;;;;6.19;74.98;101327.38;5052275;28;20022;-77
2022/04/16 01:47:42;;;;;;;7.68;6.35;;;;;;;6.12;74.37;101315.38;5053606;28;20028;-78
2022/04/16 01:50:09;;;;;;;9.65;6.28;;;;;;;6.27;74.38;101336.56;5069421;28;20486;-78
2022/04/16 01:52:36;;;;;;;10.70;6.78;;;;;;;6.26;73.99;101335.78;5037055;28;20124;-78
2022/04/16 01:55:04;;;;;;;7.07;6.00;;;;;;;6.27;73.96;101343.00;5053541;28;20032;-78
2022/04/16 01:57:32;;;;;;;9.57;5.88;;;;;;;6.32;74.12;101342.53;5036864;28;20040;-78
2022/04/16 01:59:58;;;;;;;11.07;5.60;;;;;;;6.33;73.61;101349.00;5020351;28;20024;-78
2022/04/16 02:02:23;;;;;;;6.65;4.63;;;;;;;6.25;72.12;101341.84;5053337;28;20074;-79
2022/04/16 02:04:50;;;;;;;7.25;5.72;;;;;;;6.20;72.64;101347.97;5054612;28;20025;-78
2022/04/16 02:07:16;;;;;;;8.55;5.55;;;;;;;6.08;72.61;101340.84;5054687;28;20031;-78
2022/04/16 02:09:44;;;;;;;10.63;5.63;;;;;;;6.17;72.19;101348.84;5054851;28;20103;-79
2022/04/16 02:12:09;;;;;;;7.25;5.65;;;;;;;6.20;72.70;101348.78;5055348;28;20486;-78
2022/04/16 02:14:36;;;;;;;9.13;5.30;;;;;;;6.24;73.16;101348.72;5053182;28;20071;-78
2022/04/16 02:17:03;;;;;;;6.68;5.22;;;;;;;6.30;73.21;101349.88;5054582;28;20095;-77
2022/04/16 02:19:34;;;;;;;7.30;5.03;;;;;;;6.28;72.06;101349.47;5053768;28;20029;-78
2022/04/16 02:22:00;;;;;;;5.10;4.60;;;;;;;6.28;72.48;101357.97;5036653;28;20017;-77
2022/04/16 02:24:27;;;;;;;6.55;4.88;;;;;;;6.24;72.15;101362.88;5036260;28;20466;-78
2022/04/16 02:26:55;;;;;;;8.23;4.57;;;;;;;6.21;71.57;101350.41;5069299;28;20025;-79
2022/04/16 02:29:22;;;;;;;5.88;4.78;;;;;;;6.07;72.09;101339.22;5054471;28;20070;-78
2022/04/16 02:31:49;;;;;;;5.63;3.92;;;;;;;6.22;70.87;101357.63;5053797;28;20501;-78
2022/04/16 02:34:14;;;;;;;5.78;4.03;;;;;;;6.18;70.48;101356.88;5055672;28;20099;-78
2022/04/16 02:36:42;;;;;;;7.10;3.90;;;;;;;6.16;70.81;101359.34;5039713;28;20494;-78
2022/04/16 02:39:08;;;;;;;6.28;3.80;;;;;;;6.11;71.00;101347.69;5056207;28;20112;-76
2022/04/16 02:41:35;;;;;;;6.97;4.28;;;;;;;6.09;70.71;101345.28;5074084;28;20028;-77
2022/04/16 02:44:02;;;;;;;5.38;3.90;;;;;;;6.06;70.87;101352.59;5023017;28;20435;-79
2022/04/16 02:49:43;;;;;;;6.00;3.88;;;;;;;5.97;69.73;101348.69;5000827;28;20025;-79
2022/04/16 02:52:10;;;;;;;5.80;3.55;;;;;;;5.92;69.89;101360.44;4995973;28;20026;-79
2022/04/16 02:54:37;;;;;;;5.28;4.00;;;;;;;5.83;70.58;101343.13;5020779;28;20091;-79
2022/04/16 02:57:11;;;;;;;5.50;4.40;;;;;;;5.88;70.31;101357.63;5073685;28;20048;-79
2022/04/16 02:59:38;;;;;;;6.13;3.92;;;;;;;5.82;69.44;101359.28;5055642;28;20111;-78
2022/04/16 03:02:03;;;;;;;5.07;3.75;;;;;;;5.67;69.59;101338.06;5070467;28;20036;-79
2022/04/16 03:04:29;;;;;;;4.75;3.85;;;;;;;5.68;69.68;101356.63;5038952;28;20016;-79
2022/04/16 03:06:56;;;;;;;7.10;3.90;;;;;;;5.71;69.59;101364.28;5055040;28;20040;-78
2022/04/16 03:09:22;;;;;;;3.75;3.33;;;;;;;5.67;68.91;101369.16;5072267;28;20081;-78
2022/04/16 03:11:48;;;;;;;5.95;3.67;;;;;;;5.73;69.62;101386.44;5037529;28;20036;-77
2022/04/16 03:19:46;;;;;;;5.47;3.25;;;;;;;5.63;68.69;101388.97;5073650;28;20059;-77
2022/04/16 03:22:26;;;;;;;6.97;3.50;;;;;;;5.60;68.75;101386.97;5073546;28;20477;-78
2022/04/16 03:24:52;;;;;;;3.95;3.55;;;;;;;5.52;68.91;101391.09;5055336;28;20052;-79
2022/04/16 03:27:19;;;;;;;4.43;3.50;;;;;;;5.56;69.30;101402.38;5054951;28;20392;-78
2022/04/16 03:29:45;;;;;;;3.72;3.10;;;;;;;5.52;68.30;101399.59;5073327;28;20020;-79
2022/04/16 03:32:12;;;;;;;5.97;3.40;;;;;;;5.45;69.23;101405.28;5073290;28;20117;-79
2022/04/16 03:34:38;;;;;;;5.25;3.63;;;;;;;5.41;69.71;101403.72;5073541;28;20054;-79
2022/04/16 03:37:04;;;;;;;6.47;3.15;;;;;;;5.47;69.72;101405.69;5073461;28;20137;-79
2022/04/16 03:39:51;;;;;;;4.18;3.30;;;;;;;5.47;69.14;101410.53;5055385;28;20035;-80
2022/04/16 03:42:18;;;;;;;8.07;4.18;;;;;;;5.49;68.70;101425.03;5054976;28;20097;-78
2022/04/16 03:44:44;;;;;;;6.05;3.42;;;;;;;5.46;69.14;101418.19;5040952;28;20024;-78
2022/04/16 03:47:10;;;;;;;6.45;3.15;;;;;;;5.47;69.57;101411.34;5059503;28;20021;-78
2022/04/16 03:49:36;;;;;;;7.03;3.65;;;;;;;5.48;69.28;101421.38;5042664;28;20465;-78
2022/04/16 03:52:02;;;;;;;5.07;3.42;;;;;;;5.41;68.55;101415.00;5059102;28;20032;-78
2022/04/16 04:00:05;;;;;;;7.70;3.80;;;;;;;5.40;69.24;101422.69;5077003;28;20036;-78
2022/04/16 04:02:33;;;;;;;6.90;3.55;;;;;;;5.44;68.89;101433.94;5077039;28;20362;-77
2022/04/16 04:04:59;;;;;;;4.63;3.05;;;;;;;5.42;69.10;101436.41;5042458;28;20071;-77
2022/04/16 04:07:25;;;;;;;4.75;3.30;;;;;;;5.39;68.54;101438.03;5076814;28;20037;-78
2022/04/16 04:09:51;;;;;;;4.10;3.58;;;;;;;5.45;69.35;101444.03;5076717;28;20028;-77
2022/04/16 04:12:18;;;;;;;4.90;3.50;;;;;;;5.42;68.84;101444.88;5058920;28;20032;-77
2022/04/16 04:14:46;;;;;;;3.88;3.13;;;;;;;5.47;69.18;101461.38;5058816;28;20102;-77
2022/04/16 04:17:11;;;;;;;8.45;3.25;;;;;;;5.46;68.57;101463.41;5042143;28;20174;-77
2022/04/16 04:19:41;;;;;;;6.50;3.38;;;;;;;5.41;68.13;101475.16;5058626;28;20111;-78
2022/04/16 04:22:10;;;;;;;4.90;3.33;;;;;;;5.34;68.33;101461.06;5041885;28;20470;-78
2022/04/16 04:24:38;;;;;;;7.47;3.65;;;;;;;5.38;68.65;101463.88;5058710;28;20028;-79
2022/04/16 04:27:04;;;;;;;4.30;3.22;;;;;;;5.36;68.74;101471.97;5042033;28;20029;-80
2022/04/16 04:29:30;;;;;;;5.60;3.90;;;;;;;5.22;68.50;101458.75;5058431;28;20492;-78
2022/04/16 04:31:56;;;;;;;6.85;4.03;;;;;;;5.39;67.92;101488.88;5057985;28;20024;-79
2022/04/16 04:34:30;;;;;;;5.30;3.55;;;;;;;5.40;67.98;101493.31;5041739;28;20464;-79
2022/04/16 04:36:56;;;;;;;5.28;3.95;;;;;;;5.35;68.76;101490.91;5058265;28;20020;-78
2022/04/16 04:39:23;;;;;;;7.80;3.88;;;;;;;5.37;68.31;101493.34;5058328;28;20059;-79
2022/04/16 04:41:49;;;;;;;5.72;3.72;;;;;;;5.39;68.98;101493.72;5041583;28;20044;-78
2022/04/16 04:44:16;;;;;;;7.57;3.60;;;;;;;5.44;69.19;101501.75;5041504;28;20031;-79
2022/04/16 04:46:42;;;;;;;6.15;3.47;;;;;;;5.50;68.71;101506.56;5075941;28;20031;-79
2022/04/16 04:49:11;;;;;;;5.63;3.55;;;;;;;5.45;67.84;101503.34;5041402;28;20024;-78
2022/04/16 04:51:40;;;;;;;7.07;3.33;;;;;;;5.47;68.27;101510.22;5058393;28;20031;-79
2022/04/16 04:54:07;;;;;;;4.53;3.60;;;;;;;5.46;67.85;101519.91;5058041;28;20021;-80
2022/04/16 04:56:34;;;;;;;6.35;3.90;;;;;;;5.46;69.22;101521.94;5040446;28;20161;-80
2022/04/16 04:59:01;;;;;;;6.97;3.85;;;;;;;5.50;68.57;101519.88;5075895;28;20024;-79
2022/04/16 05:01:26;;;;;;;9.45;4.30;;;;;;;5.55;69.02;101531.53;5057977;28;20032;-79
2022/04/16 05:03:52;;;;;;;8.93;4.18;;;;;;;5.60;67.69;101528.28;5057713;28;20029;-78
2022/04/16 05:06:17;;;;;;;6.68;4.15;;;;;;;5.60;68.05;101524.66;5057648;28;20031;-79
2022/04/16 05:08:45;;;;;;;5.68;3.80;;;;;;;5.65;67.95;101536.31;5041025;28;20043;-78
2022/04/16 05:11:12;;;;;;;7.32;3.85;;;;;;;5.71;68.14;101531.03;5057951;28;20035;-78
2022/04/16 05:13:46;;;;;;;5.35;4.00;;;;;;;5.74;67.78;101535.03;5040724;28;20025;-78
2022/04/16 05:16:13;;;;;;;10.50;4.20;;;;;;;5.78;67.60;101549.94;5057574;28;20074;-77
2022/04/16 05:18:40;;;;;;;7.60;4.00;;;;;;;5.68;68.26;101560.09;5040894;28;20035;-77
2022/04/16 05:21:20;;;;;;;4.68;3.80;;;;;;;5.72;67.87;101551.63;5041126;28;20025;-78
2022/04/16 05:23:46;;;;;;;5.93;4.30;;;;;;;5.62;67.55;101553.31;5057381;28;20024;-77
2022/04/16 05:26:12;;;;;;;5.28;4.28;;;;;;;5.69;68.07;101558.91;5057227;28;20072;-79
2022/04/16 05:28:38;;;;;;;8.88;3.95;;;;;;;5.73;68.42;101559.66;5057275;28;20458;-78
2022/04/16 05:31:12;;;;;;;5.40;3.97;;;;;;;5.78;67.12;101562.06;5057505;28;20024;-77
2022/04/16 05:36:21;;;;;;;6.93;4.40;;;;;;;5.79;68.04;101566.50;5075123;28;20106;-79
2022/04/16 05:38:46;;;;;;;6.50;4.20;;;;;;;5.75;68.28;101565.72;5056851;28;20465;-80
2022/04/16 05:41:12;;;;;;;5.70;4.38;;;;;;;5.77;68.20;101570.97;5057252;28;20081;-78
2022/04/16 05:43:39;;;;;;;12.95;4.38;;;;;;;5.76;68.64;101577.84;5057182;28;20471;-78
2022/04/16 05:46:05;;;;;;;9.50;4.22;;;;;;;5.72;67.89;101579.88;5075004;28;20028;-78
2022/04/16 05:48:32;;;;;;;6.30;4.55;;;;;;;5.68;68.01;101585.53;5074829;28;20048;-77
2022/04/16 05:50:58;;;;;;;12.43;4.63;;;;;;;5.69;68.47;101589.19;5056657;28;20440;-77
2022/04/16 05:53:25;;;;;;;7.30;4.10;;;;;;;5.62;68.06;101576.69;5040017;28;20074;-76
2022/04/16 05:55:51;;;;;;;7.25;5.03;;;;;;;5.64;68.08;101591.22;5056386;28;20385;-77
2022/04/16 05:58:16;;;;;;;6.13;4.72;;;;;;;5.74;68.82;101589.53;5040265;28;20032;-77
2022/04/16 06:00:42;;;;;;;8.70;4.95;;;;;;;5.86;68.67;101580.59;5056738;28;20551;-77
2022/04/16 06:03:09;;;;;;;6.90;4.90;;;;;;;5.95;67.78;101589.44;5056615;28;20029;-78
2022/04/16 06:05:38;;;;;;;6.97;4.95;;;;;;;6.05;68.40;101590.56;5056589;28;20078;-79
2022/04/16 06:08:04;;;;;;;9.88;5.63;;;;;;;6.05;67.51;101593.38;5056946;28;20074;-79
2022/04/16 06:10:30;;;;;;;9.00;5.60;;;;;;;6.06;67.44;101587.31;5058706;28;20024;-77
2022/04/16 06:12:55;;;;;;;9.40;6.22;;;;;;;6.14;67.80;101596.53;5056630;28;20115;-78
2022/04/16 06:15:23;;;;;;;9.75;5.35;;;;;;;6.19;66.92;101592.47;5057001;28;20020;-78
2022/04/16 06:17:51;;;;;;;8.93;5.07;;;;;;;6.25;67.54;101596.44;5057250;28;20020;-78
2022/04/16 06:20:17;;;;;;;7.78;5.50;;;;;;;6.17;67.88;101603.41;5079173;28;20044;-79
2022/04/16 06:22:43;;;;;;;6.97;5.13;;;;;;;6.19;67.24;101610.25;5057364;28;20021;-77
2022/04/16 06:25:10;;;;;;;7.22;4.78;;;;;;;6.15;67.13;101595.31;5041194;28;20055;-76
2022/04/16 06:27:38;;;;;;;10.73;4.97;;;;;;;6.22;67.59;101611.41;5054005;28;20111;-75
2022/04/16 06:30:05;;;;;;;6.57;4.70;;;;;;;6.21;67.73;101602.16;5020365;28;20078;-78
2022/04/16 06:32:31;;;;;;;8.07;5.85;;;;;;;6.25;66.97;101610.59;5056379;28;20060;-77
2022/04/16 06:34:57;;;;;;;9.43;5.28;;;;;;;6.19;67.37;101609.44;5065101;28;20017;-76
2022/04/16 06:37:23;;;;;;;7.00;5.05;;;;;;;6.27;67.05;101625.13;5072746;28;20507;-78
2022/04/16 06:39:49;;;;;;;8.63;5.72;;;;;;;6.26;66.91;101604.53;5039304;28;20024;-77
2022/04/16 06:42:29;;;;;;;8.60;5.30;;;;;;;6.41;67.18;101617.31;5074010;28;20013;-79
2022/04/16 06:44:56;;;;;;;11.43;6.40;;;;;;;6.58;67.12;101600.56;5055960;28;20024;-77
2022/04/16 06:47:23;;;;;;;8.05;5.10;;;;;;;6.81;65.77;101601.53;5038695;28;20043;-77
2022/04/16 06:49:49;;;;;;;7.88;5.35;;;;;;;6.97;64.98;101617.13;5072392;28;20052;-79
2022/04/16 06:52:19;;;;;;;6.43;5.35;;;;;;;7.07;64.84;101619.84;5055665;28;20086;-77
2022/04/16 06:54:47;;;;;;;5.60;5.00;;;;;;;7.09;63.33;101620.25;5055872;28;20036;-78
2022/04/16 06:57:13;;;;;;;8.75;5.90;;;;;;;7.27;63.99;101620.81;5055778;28;20450;-77
2022/04/16 06:59:39;;;;;;;7.10;4.90;;;;;;;7.42;63.67;101618.59;5039105;28;20074;-77
2022/04/16 07:02:08;;;;;;;6.63;5.13;;;;;;;7.59;62.62;101623.25;5054349;28;20028;-76
2022/04/16 07:04:48;;;;;;;8.02;5.57;;;;;;;7.79;62.92;101626.97;5055732;28;20491;-77
2022/04/16 07:07:15;;;;;;;7.20;5.60;;;;;;;8.09;62.38;101623.28;5056717;28;20024;-80
2022/04/16 07:09:41;;;;;;;9.02;4.78;;;;;;;8.22;61.26;101614.97;5057888;28;20135;-80
2022/04/16 07:12:11;;;;;;;7.18;5.00;;;;;;;8.41;60.83;101628.47;5040096;28;20477;-80
2022/04/16 07:14:38;;;;;;;6.47;4.43;;;;;;;8.53;60.02;101625.03;5054457;28;20032;-78
2022/04/16 07:17:05;;;;;;;10.88;4.82;;;;;;;8.55;58.93;101633.09;5056362;28;20097;-81
2022/04/16 07:19:33;;;;;;;6.70;4.88;;;;;;;8.51;58.97;101638.03;5055238;28;20044;-79
2022/04/16 07:22:04;;;;;;;5.20;4.53;;;;;;;8.40;58.82;101635.38;5039423;28;20107;-79
2022/04/16 07:24:31;;;;;;;;;;;;;;;8.34;59.09;101636.31;5055380;28;20485;-76
2022/04/16 07:27:11;;;;;;;11.40;5.53;;;;;;;8.18;58.94;101642.63;5018201;28;19913;-79
2022/04/16 07:29:38;;;;;;;7.03;5.38;;;;;;;8.05;59.98;101639.56;5052501;28;20060;-76
2022/04/16 07:32:05;;;;;;;7.43;4.80;;;;;;;8.29;60.06;101634.72;5050324;28;20167;-77
2022/04/16 07:34:32;;;;;;;8.55;6.05;;;;;;;8.54;59.00;101637.16;5054748;28;20040;-82
2022/04/16 07:36:58;;;;;;;6.68;5.22;;;;;;;8.78;58.73;101641.59;5022813;28;20061;-80
2022/04/16 07:39:23;;;;;;;5.80;4.63;;;;;;;9.09;58.78;101643.03;5051300;28;20033;-84
2022/04/16 07:41:51;;;;;;;6.28;4.90;;;;;;;9.66;56.65;101638.19;5053006;28;20029;-82
2022/04/16 07:44:17;;;;;;;7.82;5.60;;;;;;;10.43;54.54;101649.00;5034554;28;20033;-82
2022/04/16 07:46:43;;;;;;;4.90;4.40;;;;;;;10.72;53.42;101632.75;5022124;28;20029;-82
2022/04/16 07:49:08;;;;;;;6.45;4.90;;;;;;;11.10;51.93;101610.16;5038697;28;20036;-80
2022/04/16 07:51:34;;;;;;;4.40;4.00;;;;;;;11.38;49.95;101628.47;5038238;28;20017;-81
2022/04/16 07:54:01;;;;;;;6.35;4.28;;;;;;;12.29;48.89;101627.66;5051376;28;20470;-79
2022/04/16 07:56:29;;;;;;;6.63;4.35;;;;;;;12.79;46.88;101646.78;5051702;28;20033;-80
2022/04/16 07:58:55;;;;;;;6.18;4.20;;;;;;;12.88;46.67;101644.00;5034272;28;20033;-79
2022/04/16 08:01:21;;;;;;;4.60;4.10;;;;;;;12.75;45.49;101640.38;5035602;28;20063;-78
2022/04/16 08:03:47;;;;;;;4.43;4.03;;;;;;;12.53;44.96;101653.84;5058455;28;20052;-78
2022/04/16 08:06:14;;;;;;;6.25;3.67;;;;;;;12.37;46.29;101651.09;5054526;28;20076;-77
2022/04/16 08:08:39;;;;;;;9.98;4.45;;;;;;;12.21;46.15;101651.22;5072580;28;20036;-76
2022/04/16 08:11:04;;;;;;;3.55;3.17;;;;;;;12.65;46.28;101638.69;5054225;28;20032;-77
2022/04/16 08:13:31;;;;;;;5.80;4.38;;;;;;;13.20;43.43;101645.75;5052834;28;20016;-76
2022/04/16 08:15:58;;;;;;;4.50;3.67;;;;;;;12.77;42.08;101646.47;5070746;28;20217;-77
2022/04/16 08:18:24;;;;;;;5.78;3.70;;;;;;;12.61;43.44;101640.09;5053645;28;20147;-77
2022/04/16 08:20:50;;;;;;;11.95;6.15;;;;;;;12.21;44.28;101643.44;5054897;28;20029;-77
2022/04/16 08:23:17;;;;;;;7.75;5.00;;;;;;;12.02;43.85;101655.91;5071362;28;20027;-77
2022/04/16 08:25:43;;;;;;;6.93;4.88;;;;;;;12.83;44.21;101650.31;5071076;28;20473;-77
2022/04/16 08:28:09;;;;;;;5.90;2.75;;;;;;;14.09;42.26;101640.25;5071146;28;20074;-77
2022/04/16 08:30:37;;;;;;;3.65;3.30;;;;;;;15.10;40.02;101635.56;5053861;28;20362;-78
2022/04/16 08:33:07;;;;;;;4.57;3.53;;;;;;;15.63;37.67;101650.41;5039644;28;20044;-77
2022/04/16 08:35:33;;;;;;;4.90;3.60;;;;;;;15.57;37.51;101649.44;5057504;28;20021;-77
2022/04/16 08:37:59;;;;;;;9.35;4.03;;;;;;;15.16;38.18;101648.00;5074851;28;20052;-77
2022/04/16 08:40:25;;;;;;;4.80;3.88;;;;;;;14.61;39.00;101650.00;5075958;28;20469;-77
2022/04/16 08:42:52;;;;;;;5.13;4.15;;;;;;;14.18;40.16;101650.97;5056155;28;20388;-77
2022/04/16 08:45:18;;;;;;;3.75;3.22;;;;;;;13.87;40.70;101650.16;5041485;28;20020;-76
2022/04/16 08:47:44;;;;;;;3.50;3.20;;;;;;;13.68;39.96;101658.66;5058404;28;20108;-77
2022/04/16 08:50:12;;;;;;;3.72;3.40;;;;;;;13.74;39.52;101636.75;5074651;28;20016;-78
2022/04/16 08:52:39;;;;;;;3.95;3.47;;;;;;;14.42;40.38;101656.97;5058256;28;20032;-76
2022/04/16 08:55:22;;;;;;;4.10;3.13;;;;;;;15.38;37.29;101648.66;5057830;28;20052;-76
2022/04/16 08:57:49;;;;;;;7.40;3.30;;;;;;;16.11;36.69;101657.13;5076008;28;20031;-76
2022/04/16 09:00:16;;;;;;;5.75;3.05;;;;;;;17.21;35.14;101634.28;5073777;28;20067;-76
2022/04/16 09:02:59;;;;;;;5.22;3.25;;;;;;;17.22;32.14;101635.84;5041080;28;20024;-75
2022/04/16 09:05:27;;;;;;;3.40;2.75;;;;;;;17.11;33.62;101653.69;5075544;28;20389;-75
2022/04/16 09:08:00;;;;;;;5.20;2.80;;;;;;;16.12;32.62;101663.66;5041252;28;20036;-76
2022/04/16 09:10:28;;;;;;;4.43;2.65;;;;;;;15.27;34.76;101662.69;5041385;28;20024;-74
2022/04/16 09:13:09;;;;;;;3.90;2.90;;;;;;;14.53;35.13;101671.66;5040970;28;20033;-74
2022/04/16 09:15:36;;;;;;;3.70;2.70;;;;;;;14.66;36.00;101672.31;5075749;28;20024;-75
2022/04/16 09:18:06;;;;;;;7.40;3.22;;;;;;;14.87;36.68;101673.50;5072616;28;20039;-77
2022/04/16 09:20:52;;;;;;;3.92;2.90;;;;;;;15.45;36.10;101664.72;5057798;28;20029;-78
2022/04/16 09:23:21;;;;;;;4.80;2.65;;;;;;;16.26;35.04;101658.03;5057021;28;20033;-77
2022/04/16 09:25:48;;;;;;;3.17;2.70;;;;;;;16.42;33.86;101669.16;5057475;28;20025;-78
2022/04/16 09:28:17;;;;;;;7.97;3.13;;;;;;;15.76;33.03;101673.19;5057405;28;20575;-78
2022/04/16 09:30:53;;;;;;;3.70;2.92;;;;;;;15.19;34.65;101677.84;5057346;28;20024;-77
2022/04/16 09:33:19;;;;;;;4.47;2.83;;;;;;;14.85;35.98;101673.94;5040968;28;20060;-77
2022/04/16 09:35:47;;;;;;;4.47;2.88;;;;;;;15.08;35.71;101681.97;5075004;28;20466;-77
2022/04/16 09:38:14;;;;;;;6.53;2.70;;;;;;;15.37;35.72;101680.69;5023869;28;20559;-74
2022/04/16 09:40:41;;;;;;;3.25;2.60;;;;;;;15.57;35.55;101674.50;5040958;28;20381;-75
2022/04/16 09:43:07;;;;;;;5.95;2.80;;;;;;;15.55;35.33;101681.50;5074788;28;20024;-76
2022/04/16 09:45:38;;;;;;;4.88;2.60;;;;;;;15.77;33.68;101678.47;5057170;28;20028;-75
2022/04/16 09:48:10;;;;;;;2.67;2.10;;;;;;;16.03;34.25;101670.25;5040354;28;20036;-76
2022/04/16 09:50:35;;;;;;;3.13;2.35;;;;;;;16.59;33.00;101658.03;5057122;28;20508;-76
2022/04/16 09:53:02;;;;;;;2.85;2.13;;;;;;;16.34;32.47;101669.97;5056714;28;20037;-76
2022/04/16 09:55:42;;;;;;;7.32;2.72;;;;;;;15.81;32.98;101676.22;5054831;28;20118;-76
2022/04/16 09:58:11;;;;;;;4.15;2.53;;;;;;;15.54;33.52;101674.16;5040035;28;20055;-75
2022/04/16 10:00:37;;;;;;;6.03;2.53;;;;;;;15.40;33.14;101674.00;5056740;28;20119;-76
2022/04/16 10:03:08;;;;;;;5.88;2.25;;;;;;;15.03;34.47;101688.34;5039982;28;20552;-75
2022/04/16 10:05:35;;;;;;;3.50;2.33;;;;;;;14.83;34.62;101688.00;5056547;28;20077;-77
2022/04/16 10:08:01;;;;;;;2.88;2.08;;;;;;;14.96;35.03;101684.97;5040281;28;20032;-76
2022/04/16 10:10:40;;;;;;;2.35;1.80;;;;;;;15.10;34.52;101682.28;5040097;28;20024;-76
2022/04/16 10:13:20;;;;;;;3.60;2.20;;;;;;;15.23;33.41;101676.41;5069703;28;20032;-76
2022/04/16 10:16:01;;;;;;;3.17;2.58;;;;;;;15.27;33.38;101690.59;5040084;28;20039;-76
2022/04/16 10:18:28;;;;;;;2.53;1.80;;;;;;;14.90;33.25;101687.66;5074506;28;20029;-77
2022/04/16 10:20:56;;;;;;;3.58;2.17;;;;;;;14.93;34.36;101685.94;5023452;28;20036;-76
2022/04/16 10:23:30;;;;;;;3.08;1.70;;;;;;;15.02;33.64;101681.00;5074442;28;20031;-76
2022/04/16 10:26:03;;;;;;;2.65;2.00;;;;;;;15.06;33.99;101701.72;5074092;28;20032;-75
2022/04/16 10:28:37;;;;;;;4.20;1.88;;;;;;;14.88;33.88;101695.16;5074353;28;20048;-75
2022/04/16 10:31:06;;;;;;;2.60;1.63;;;;;;;14.86;33.61;101666.94;5056236;28;20047;-77
2022/04/16 10:33:31;;;;;;;1.85;1.58;;;;;;;14.94;34.21;101676.88;5019685;28;20049;-75
2022/04/16 10:36:03;;;;;;;2.38;1.98;;;;;;;15.19;34.28;101681.50;5054049;28;20021;-75
2022/04/16 10:38:34;;;;;;;4.72;2.50;;;;;;;15.04;33.30;101689.94;5054020;28;20025;-76
2022/04/16 10:41:09;;;;;;;2.72;2.08;;;;;;;14.51;32.68;101686.47;5052932;28;20052;-76
2022/04/16 10:43:50;;;;;;;2.05;1.55;;;;;;;14.25;33.36;101691.59;5054025;28;20028;-75
2022/04/16 10:46:16;;;;;;;3.75;2.10;;;;;;;14.00;34.73;101696.72;5052622;28;20052;-75
2022/04/16 10:48:52;;;;;;;4.35;2.05;;;;;;;14.04;35.36;101698.19;5053703;28;20100;-76
2022/04/16 10:51:21;;;;;;;2.25;1.83;;;;;;;14.24;35.16;101689.19;5052479;28;20028;-76
2022/04/16 10:53:49;;;;;;;2.60;1.90;;;;;;;14.50;35.51;101690.63;5051950;28;20029;-74
2022/04/16 10:56:21;;;;;;;2.22;1.92;;;;;;;14.45;36.02;101699.84;5052876;28;20017;-74
2022/04/16 10:58:48;;;;;;;3.05;1.98;;;;;;;14.12;35.26;101713.00;5053604;28;20035;-74
2022/04/16 11:01:25;;;;;;;2.65;1.75;;;;;;;13.98;35.81;101708.63;5052455;28;20046;-78
2022/04/16 11:03:54;;;;;;;2.97;2.10;;;;;;;13.88;35.30;101701.25;5053487;28;20036;-76
2022/04/16 11:06:19;;;;;;;3.80;2.28;;;;;;;13.97;36.41;101711.97;5052404;28;20081;-74
2022/04/16 11:08:46;;;;;;;5.97;2.22;;;;;;;13.96;35.44;101713.25;5052409;28;20496;-76
2022/04/16 11:11:13;;;;;;;2.95;2.10;;;;;;;13.91;35.49;101700.34;5052885;28;20039;-75
2022/04/16 11:13:40;;;;;;;4.97;2.20;;;;;;;14.02;36.10;101709.28;5052399;28;20057;-76
2022/04/16 11:16:06;;;;;;;3.33;2.28;;;;;;;13.93;35.75;101723.56;5053672;28;20021;-76
2022/04/16 11:18:43;;;;;;;5.85;3.63;;;;;;;13.77;36.46;101729.50;5052521;28;20036;-75
2022/04/16 11:21:23;;;;;;;4.18;2.92;;;;;;;13.44;36.80;101731.16;5053684;28;20112;-77
2022/04/16 11:23:50;;;;;;;3.13;2.70;;;;;;;13.34;37.69;101725.34;5020678;28;20482;-75
2022/04/16 11:34:54;;;;;;;3.45;2.75;;;;;;;13.34;36.75;101725.34;5073422;28;20389;-75
2022/04/16 11:37:21;;;;;;;2.90;2.60;;;;;;;13.28;37.14;101726.41;5039479;28;20370;-76
2022/04/16 11:40:05;;;;;;;4.85;3.17;;;;;;;13.24;36.86;101723.69;5038662;28;20039;-76
2022/04/16 11:42:33;;;;;;;3.80;2.97;;;;;;;13.10;38.00;101734.78;5055132;28;20161;-75
2022/04/16 11:44:59;;;;;;;5.68;2.83;;;;;;;13.00;37.26;101733.91;5038533;28;20033;-76
2022/04/16 11:47:27;;;;;;;3.65;3.33;;;;;;;12.97;37.55;101729.13;5055117;28;20042;-75
2022/04/16 11:49:57;;;;;;;2.83;2.63;;;;;;;12.85;37.56;101725.00;5055897;28;20097;-76
2022/04/16 11:52:31;;;;;;;3.95;3.08;;;;;;;12.80;37.75;101733.38;5055049;28;20032;-76
2022/04/16 11:55:19;;;;;;;3.47;2.55;;;;;;;12.82;38.12;101720.22;5038769;28;20024;-75
2022/04/16 11:58:07;;;;;;;3.55;2.75;;;;;;;13.00;37.37;101736.75;5073128;28;20078;-75
2022/04/16 12:00:33;;;;;;;2.90;2.55;;;;;;;13.17;36.74;101726.78;5072000;28;20040;-77